createdAt,value
2018-04-20T11:33:26.548Z,1016.50
2018-04-20T11:34:26.023Z,1016.44
2018-04-20T11:36:19.765Z,1016.14
2018-04-20T11:37:20.856Z,1016.02
2018-04-20T11:39:12.383Z,1016.20
2018-04-20T11:40:12.364Z,1016.35
2018-04-20T11:42:05.330Z,1016.30
2018-04-20T11:43:05.764Z,1016.38
2018-04-20T11:44:59.037Z,1016.42
2018-04-20T11:45:59.101Z,1016.41
2018-04-20T11:47:52.354Z,1016.16
2018-04-20T11:48:51.982Z,1016.07
2018-04-20T11:50:44.895Z,1016.15
2018-04-20T11:51:44.964Z,1016.18
2018-04-20T11:53:37.846Z,1016.11
2018-04-20T11:54:37.835Z,1016.17
2018-04-20T11:56:31.333Z,1016.18
2018-04-20T11:57:30.752Z,1016.15
2018-04-20T11:59:23.668Z,1016.01
2018-04-20T12:00:23.645Z,1016.02
2018-04-20T12:02:16.596Z,1016.10
2018-04-20T12:03:16.550Z,1016.05
2018-04-20T12:05:09.488Z,1015.97
2018-04-20T12:06:09.463Z,1015.99
2018-04-20T12:08:02.364Z,1015.97
2018-04-20T12:09:02.370Z,1015.93
2018-04-20T12:10:55.298Z,1016.01
2018-04-20T12:11:55.276Z,1016.00
2018-04-20T12:13:48.177Z,1015.98
2018-04-20T12:14:48.177Z,1015.89
2018-04-20T12:16:41.137Z,1015.88
2018-04-20T12:17:41.117Z,1015.92
2018-04-20T12:19:34.015Z,1016.01
2018-04-20T12:20:34.024Z,1015.94
2018-04-20T12:22:26.976Z,1015.92
2018-04-20T12:23:26.949Z,1015.97
2018-04-20T12:25:19.851Z,1015.85
2018-04-20T12:26:19.861Z,1015.88
2018-04-20T12:28:12.791Z,1015.80
2018-04-20T12:29:12.771Z,1015.87
2018-04-20T12:31:05.679Z,1015.95
2018-04-20T12:32:05.733Z,1015.91
2018-04-20T12:33:58.627Z,1015.82
2018-04-20T12:34:58.603Z,1015.76
2018-04-20T12:36:51.517Z,1015.74
2018-04-20T12:37:51.521Z,1015.80
2018-04-20T12:39:44.611Z,1015.70
2018-04-20T12:40:44.431Z,1015.77
2018-04-20T12:42:37.584Z,1015.62
2018-04-20T12:43:37.596Z,1015.64
2018-04-20T12:45:31.930Z,1015.34
2018-04-20T12:46:31.894Z,1015.32
2018-04-20T12:48:24.856Z,1015.35
2018-04-20T12:49:24.798Z,1015.34
2018-04-20T12:51:17.943Z,1015.31
2018-04-20T12:52:17.790Z,1015.33
2018-04-20T12:54:10.726Z,1015.27
2018-04-20T12:55:10.679Z,1015.28
2018-04-20T12:57:04.219Z,1015.30
2018-04-20T12:58:04.229Z,1015.28
2018-04-20T12:59:57.499Z,1015.25
2018-04-20T13:00:57.503Z,1015.27
2018-04-20T13:02:52.116Z,1015.29
2018-04-20T13:03:51.880Z,1015.25
2018-04-20T13:05:44.883Z,1015.30
2018-04-20T13:06:44.959Z,1015.27
2018-04-20T13:08:37.806Z,1015.28
2018-04-20T13:09:37.777Z,1015.19
2018-04-20T13:11:30.680Z,1015.27
2018-04-20T13:12:30.667Z,1015.28
2018-04-20T13:14:24.087Z,1015.30
2018-04-20T13:15:24.092Z,1015.24
2018-04-20T13:17:16.958Z,1015.21
2018-04-20T13:18:17.000Z,1015.19
2018-04-20T13:20:09.873Z,1015.22
2018-04-20T13:21:09.921Z,1015.16
2018-04-20T13:23:02.757Z,1015.15
2018-04-20T13:24:02.768Z,1015.14
2018-04-20T13:25:57.211Z,1015.17
2018-04-20T13:26:57.166Z,1015.16
2018-04-20T13:28:50.079Z,1015.11
2018-04-20T13:29:50.071Z,1015.12
2018-04-20T13:31:43.614Z,1015.09
2018-04-20T13:32:43.134Z,1015.13
2018-04-20T13:34:35.906Z,1015.07
2018-04-20T13:35:35.935Z,1015.07
2018-04-20T13:37:28.835Z,1015.03
2018-04-20T13:38:28.800Z,1015.02
2018-04-20T13:40:21.749Z,1015.03
2018-04-20T13:41:21.748Z,1015.02
2018-04-20T13:43:14.873Z,1014.99
2018-04-20T13:44:14.660Z,1015.07
2018-04-20T13:46:08.121Z,1015.03
2018-04-20T13:47:07.764Z,1015.06
2018-04-20T13:49:00.719Z,1015.01
2018-04-20T13:50:00.718Z,1015.01
2018-04-20T13:51:54.090Z,1015.00
2018-04-20T13:52:54.089Z,1014.97
2018-04-20T13:54:47.047Z,1014.95
2018-04-20T13:55:47.070Z,1014.97
2018-04-20T13:57:54.026Z,1014.93
2018-04-20T13:58:54.022Z,1014.91
2018-04-20T14:00:47.089Z,1014.93
2018-04-20T14:01:48.052Z,1014.96
2018-04-20T14:03:39.986Z,1014.91
2018-04-20T14:04:39.948Z,1014.89
2018-04-20T14:06:32.876Z,1014.93
2018-04-20T14:13:56.107Z,1014.88
2018-04-20T14:14:56.065Z,1014.85
2018-04-20T14:16:50.843Z,1014.80
2018-04-20T14:17:50.485Z,1014.79
2018-04-20T14:19:43.363Z,1014.75
2018-04-20T14:20:43.374Z,1014.73
2018-04-20T14:22:36.914Z,1014.74
2018-04-20T14:23:36.726Z,1014.70
2018-04-20T14:25:29.652Z,1014.74
2018-04-20T14:26:29.627Z,1014.70
2018-04-20T14:28:23.401Z,1014.75
2018-04-20T14:29:22.653Z,1014.73
2018-04-20T14:31:15.574Z,1014.73
2018-04-20T14:32:15.545Z,1014.70
2018-04-20T14:34:08.467Z,1014.72
2018-04-20T14:35:08.449Z,1014.69
2018-04-20T14:37:08.243Z,1014.63
2018-04-20T14:38:01.340Z,1014.65
2018-04-20T14:41:19.984Z,1014.71
2018-04-20T14:42:19.969Z,1014.67
2018-04-20T14:51:01.783Z,1014.66
2018-04-20T14:53:56.102Z,1014.71
2018-04-20T14:54:56.024Z,1014.63
2018-04-20T14:56:49.639Z,1014.65
2018-04-20T14:57:49.589Z,1014.67
2018-04-20T14:59:43.400Z,1014.68
2018-04-20T15:00:43.409Z,1014.68
2018-04-20T15:02:37.125Z,1014.63
2018-04-20T15:03:37.109Z,1014.65
2018-04-20T15:05:30.473Z,1014.65
2018-04-20T15:06:30.467Z,1014.67
2018-04-20T15:08:23.930Z,1014.64
2018-04-20T15:09:23.886Z,1014.63
2018-04-20T15:11:16.838Z,1014.61
2018-04-20T15:12:16.895Z,1014.60
2018-04-20T15:14:10.307Z,1014.68
2018-04-20T15:15:09.748Z,1014.64
2018-04-20T15:17:02.729Z,1014.69
2018-04-20T15:18:02.773Z,1014.69
2018-04-20T15:19:57.708Z,1014.70
2018-04-20T15:20:57.138Z,1014.69
2018-04-20T15:22:50.587Z,1014.64
2018-04-20T15:23:57.477Z,1014.65
2018-04-20T15:26:25.407Z,1014.64
2018-04-20T15:27:25.397Z,1014.63
2018-04-20T15:29:18.290Z,1014.65
2018-04-20T15:32:13.953Z,1014.70
2018-04-20T15:33:13.653Z,1014.73
2018-04-20T15:35:06.825Z,1014.70
2018-04-20T15:36:06.839Z,1014.67
2018-04-20T15:38:01.222Z,1014.69
2018-04-20T15:39:01.194Z,1014.65
2018-04-20T15:40:54.098Z,1014.57
2018-04-20T15:41:54.091Z,1014.64
2018-04-20T15:43:47.153Z,1014.61
2018-04-20T15:44:46.996Z,1014.55
2018-04-20T15:46:39.889Z,1014.51
2018-04-20T15:47:39.899Z,1014.49
2018-04-20T15:49:32.823Z,1014.48
2018-04-20T15:50:32.777Z,1014.45
2018-04-20T15:52:26.959Z,1014.50
2018-04-20T15:53:26.223Z,1014.43
2018-04-20T15:55:19.721Z,1014.41
2018-04-20T15:56:19.191Z,1014.44
2018-04-20T15:58:12.597Z,1014.43
2018-04-20T15:59:12.099Z,1014.43
2018-04-20T16:03:25.051Z,1014.42
2018-04-20T16:04:25.048Z,1014.39
2018-04-20T16:14:10.114Z,1014.35
2018-04-20T16:15:10.061Z,1014.37
2018-04-20T16:17:02.961Z,1014.36
2018-04-20T16:18:02.961Z,1014.39
2018-04-20T16:19:55.888Z,1014.40
2018-04-20T16:20:55.858Z,1014.36
2018-04-20T16:22:48.785Z,1014.35
2018-04-20T16:23:56.413Z,1014.38
2018-04-20T16:25:41.700Z,1014.54
2018-04-20T16:26:41.658Z,1014.47
2018-04-20T16:28:35.120Z,1014.19
2018-04-20T16:29:34.650Z,1014.20
2018-04-20T16:31:27.600Z,1014.16
2018-04-20T16:32:27.560Z,1014.17
2018-04-20T16:34:20.529Z,1014.18
2018-04-20T16:35:20.524Z,1014.38
2018-04-20T16:37:14.030Z,1014.58
2018-04-20T16:43:22.100Z,1014.40
2018-04-20T16:44:22.045Z,1014.46
2018-04-20T16:46:15.424Z,1015.02
2018-04-20T16:47:14.884Z,1014.97
2018-04-20T16:49:08.625Z,1014.41
2018-04-20T16:50:08.286Z,1014.71
2018-04-20T16:52:01.739Z,1014.70
2018-04-20T16:53:01.701Z,1014.63
2018-04-20T16:54:54.796Z,1014.40
2018-04-20T16:55:54.641Z,1014.55
2018-04-20T16:57:49.660Z,1014.42
2018-04-20T16:58:49.551Z,1014.74
2018-04-20T17:00:42.724Z,1014.48
2018-04-20T17:01:42.572Z,1014.53
2018-04-20T17:04:06.651Z,1014.55
2018-04-20T17:05:06.309Z,1014.81
2018-04-20T17:07:02.840Z,1014.50
2018-04-20T17:13:44.311Z,1014.31
2018-04-20T17:14:44.282Z,1014.57
2018-04-20T17:16:37.396Z,1014.51
2018-04-20T17:17:37.350Z,1014.20
2018-04-20T17:19:30.352Z,1014.93
2018-04-20T17:20:30.233Z,1014.67
2018-04-20T17:22:23.311Z,1014.40
2018-04-20T17:23:23.239Z,1014.32
2018-04-20T17:25:16.292Z,1013.99
2018-04-20T17:26:16.113Z,1014.78
2018-04-20T17:28:12.197Z,1015.32
2018-04-20T17:29:12.151Z,1015.06
2018-04-20T17:31:05.109Z,1014.17
2018-04-20T17:32:05.083Z,1013.94
2018-04-20T17:34:02.123Z,1013.75
2018-04-20T17:34:59.857Z,1013.72
2018-04-20T17:36:54.373Z,1013.68
2018-04-20T17:37:54.350Z,1013.67
2018-04-20T17:39:51.916Z,1013.69
2018-04-20T17:40:51.885Z,1013.62
2018-04-20T17:42:44.896Z,1013.62
2018-04-20T17:43:44.836Z,1013.60
2018-04-20T17:45:39.124Z,1013.63
2018-04-20T17:46:39.200Z,1013.78
2018-04-20T17:48:32.186Z,1013.60
2018-04-20T17:49:32.026Z,1013.55
2018-04-20T17:51:25.455Z,1013.54
2018-04-20T17:52:26.128Z,1013.57
2018-04-20T17:54:18.497Z,1013.56
2018-04-20T17:55:18.368Z,1013.52
2018-04-20T17:57:11.542Z,1013.46
2018-04-20T17:58:11.428Z,1013.47
2018-04-20T18:00:04.842Z,1013.52
2018-04-20T18:01:05.439Z,1013.46
2018-04-20T18:02:57.851Z,1013.53
2018-04-20T18:03:57.804Z,1013.49
2018-04-20T18:05:50.884Z,1013.48
2018-04-20T18:06:50.723Z,1013.49
2018-04-20T18:08:47.752Z,1013.46
2018-04-20T18:09:44.002Z,1013.51
2018-04-20T18:11:37.549Z,1013.52
2018-04-20T18:12:37.402Z,1013.50
2018-04-20T18:14:31.999Z,1013.54
2018-04-20T18:15:31.876Z,1013.55
2018-04-20T18:17:24.979Z,1013.53
2018-04-20T18:18:24.959Z,1013.52
2018-04-20T18:20:18.002Z,1013.51
2018-04-20T18:21:17.944Z,1013.53
2018-04-20T18:23:12.638Z,1013.52
2018-04-20T18:24:10.860Z,1013.52
2018-04-20T18:26:04.933Z,1013.60
2018-04-20T18:27:04.995Z,1013.62
2018-04-20T18:28:57.989Z,1013.58
2018-04-20T18:29:57.969Z,1013.58
2018-04-20T18:31:51.298Z,1013.63
2018-04-20T18:32:50.991Z,1013.62
2018-04-20T18:34:45.116Z,1013.66
2018-04-20T18:35:44.704Z,1013.66
2018-04-20T18:37:37.595Z,1013.69
2018-04-20T18:38:37.491Z,1013.66
2018-04-20T18:40:31.085Z,1013.70
2018-04-20T18:41:31.069Z,1013.70
2018-04-20T18:43:27.991Z,1013.74
2018-04-20T18:44:24.478Z,1013.73
2018-04-20T18:46:16.969Z,1013.75
2018-04-20T18:47:16.940Z,1013.81
2018-04-20T18:49:10.229Z,1013.86
2018-04-20T18:50:10.067Z,1013.84
2018-04-20T18:52:03.714Z,1013.85
2018-04-20T18:53:03.605Z,1013.89
2018-04-20T18:54:56.587Z,1013.92
2018-04-20T18:55:56.562Z,1013.96
2018-04-20T18:57:49.959Z,1013.95
2018-04-20T18:58:49.479Z,1014.01
2018-04-20T19:00:42.783Z,1014.03
2018-04-20T19:01:42.482Z,1014.02
2018-04-20T19:03:35.379Z,1014.04
2018-04-20T19:04:35.375Z,1014.06
2018-04-20T19:06:28.298Z,1014.08
2018-04-20T19:07:28.277Z,1014.09
2018-04-20T19:09:21.171Z,1014.13
2018-04-20T19:10:21.169Z,1014.13
2018-04-20T19:12:14.093Z,1014.18
2018-04-20T19:13:14.068Z,1014.18
2018-04-20T19:15:07.529Z,1014.17
2018-04-20T19:21:34.044Z,1014.27
2018-04-20T19:22:33.494Z,1014.28
2018-04-20T19:24:26.248Z,1014.31
2018-04-20T19:26:53.739Z,1014.30
2018-04-20T19:29:06.853Z,1014.32
2018-04-20T19:30:06.701Z,1014.31
2018-04-20T19:31:59.589Z,1014.32
2018-04-20T19:32:59.519Z,1014.28
2018-04-20T19:34:52.457Z,1014.31
2018-04-20T19:35:52.421Z,1014.28
2018-04-20T19:37:45.302Z,1014.29
2018-04-20T19:38:45.309Z,1014.30
2018-04-20T19:40:38.238Z,1014.31
2018-04-20T19:41:38.190Z,1014.30
2018-04-20T19:43:31.129Z,1014.30
2018-04-20T19:44:31.080Z,1014.35
2018-04-20T19:46:24.005Z,1014.30
2018-04-20T19:47:23.969Z,1014.34
2018-04-20T19:49:17.435Z,1014.34
2018-04-20T19:50:16.858Z,1014.31
2018-04-20T19:52:10.542Z,1014.34
2018-04-20T19:53:09.780Z,1014.35
